SWA2190 KFAT-KSAN
Flight info
| Callsign | SWA2190 |
|---|---|
| Flight time | 0h 55m |
| Altitude | 37000 |
| Route | BULL3 NTELL FRAME EHF HUULK COMIX2 |
| Aircraft | B738/M-SDE2E3FGHIRWXY/LB1 |
Departure
| Time | 2026-05-06 03:03 |
|---|---|
| Airport | Fresno Yosemite International Airport (KFAT) |
Arrival
| Time | 2026-05-06 03:58 |
|---|---|
| Airport | San Diego International Airport (KSAN) |
| Time | Latitude | Longitude | Altitude | Speed | Heading |
|---|---|---|---|---|---|
| 2026-05-06 02:37 | 36.77132 | -119.71771 | 331 ft | 0 kts | 303° |
| 2026-05-06 02:54 | 36.77131 | -119.71769 | 336 ft | 3 kts | 302° |
| 2026-05-06 02:54 | 36.77119 | -119.71743 | 333 ft | 3 kts | 295° |
| 2026-05-06 02:54 | 36.77109 | -119.71720 | 330 ft | 3 kts | 329° |
| 2026-05-06 02:54 | 36.77107 | -119.71715 | 330 ft | 2 kts | 35° |
| 2026-05-06 02:55 | 36.77104 | -119.71718 | 333 ft | 1 kts | 35° |
| 2026-05-06 02:56 | 36.77119 | -119.71706 | 333 ft | 7 kts | 32° |
| 2026-05-06 02:56 | 36.77149 | -119.71680 | 336 ft | 0 kts | 34° |
| 2026-05-06 02:58 | 36.77172 | -119.71660 | 336 ft | 10 kts | 35° |
| 2026-05-06 02:59 | 36.77205 | -119.71566 | 331 ft | 15 kts | 115° |
| 2026-05-06 02:59 | 36.77139 | -119.71448 | 332 ft | 19 kts | 126° |
| 2026-05-06 02:59 | 36.77043 | -119.71280 | 328 ft | 28 kts | 125° |
| 2026-05-06 02:59 | 36.76929 | -119.71080 | 329 ft | 28 kts | 126° |
| 2026-05-06 03:00 | 36.76821 | -119.70892 | 333 ft | 26 kts | 125° |
| 2026-05-06 03:00 | 36.76759 | -119.70701 | 336 ft | 23 kts | 89° |
| 2026-05-06 03:00 | 36.76766 | -119.70505 | 335 ft | 22 kts | 77° |
| 2026-05-06 03:00 | 36.76815 | -119.70428 | 335 ft | 0 kts | 39° |
| 2026-05-06 03:02 | 36.76830 | -119.70416 | 336 ft | 9 kts | 31° |
| 2026-05-06 03:03 | 36.76921 | -119.70420 | 334 ft | 20 kts | 316° |
| 2026-05-06 03:03 | 36.77087 | -119.70709 | 336 ft | 81 kts | 306° |
| 2026-05-06 03:03 | 36.77580 | -119.71599 | 368 ft | 163 kts | 305° |
| 2026-05-06 03:03 | 36.78284 | -119.72870 | 1249 ft | 179 kts | 306° |
| 2026-05-06 03:04 | 36.79021 | -119.74166 | 2342 ft | 196 kts | 307° |
| 2026-05-06 03:04 | 36.79868 | -119.75618 | 2710 ft | 225 kts | 307° |
| 2026-05-06 03:04 | 36.80849 | -119.77304 | 3103 ft | 253 kts | 307° |
| 2026-05-06 03:04 | 36.81893 | -119.79113 | 4031 ft | 260 kts | 307° |
| 2026-05-06 03:05 | 36.82852 | -119.80826 | 5080 ft | 260 kts | 304° |
| 2026-05-06 03:05 | 36.83759 | -119.82530 | 5990 ft | 264 kts | 303° |
| 2026-05-06 03:05 | 36.84751 | -119.84498 | 6865 ft | 273 kts | 302° |
| 2026-05-06 03:05 | 36.85811 | -119.86488 | 7822 ft | 275 kts | 308° |
| 2026-05-06 03:06 | 36.87006 | -119.88363 | 8801 ft | 279 kts | 310° |
| 2026-05-06 03:06 | 36.87853 | -119.90538 | 9681 ft | 291 kts | 285° |
| 2026-05-06 03:06 | 36.87877 | -119.93099 | 10506 ft | 307 kts | 262° |
| 2026-05-06 03:06 | 36.87055 | -119.95691 | 10769 ft | 340 kts | 238° |
| 2026-05-06 03:07 | 36.85361 | -119.97858 | 11277 ft | 358 kts | 214° |
| 2026-05-06 03:07 | 36.83084 | -119.99168 | 12080 ft | 363 kts | 196° |
| 2026-05-06 03:07 | 36.80630 | -119.99991 | 12909 ft | 368 kts | 189° |
| 2026-05-06 03:07 | 36.78073 | -120.00021 | 13684 ft | 369 kts | 164° |
| 2026-05-06 03:08 | 36.75740 | -119.98789 | 14500 ft | 364 kts | 144° |
| 2026-05-06 03:08 | 36.73545 | -119.97176 | 15273 ft | 369 kts | 146° |
| 2026-05-06 03:08 | 36.71285 | -119.95597 | 15988 ft | 376 kts | 147° |
| 2026-05-06 03:08 | 36.70630 | -119.95147 | 16192 ft | 377 kts | 147° |
| 2026-05-06 03:09 | 36.68304 | -119.93574 | 16948 ft | 382 kts | 147° |
| 2026-05-06 03:09 | 36.65945 | -119.92002 | 17695 ft | 387 kts | 148° |
| 2026-05-06 03:09 | 36.63547 | -119.90417 | 18426 ft | 392 kts | 148° |
| 2026-05-06 03:09 | 36.61121 | -119.88823 | 19085 ft | 396 kts | 148° |
| 2026-05-06 03:10 | 36.58677 | -119.87223 | 19781 ft | 399 kts | 147° |
| 2026-05-06 03:10 | 36.56213 | -119.85612 | 20462 ft | 401 kts | 147° |
| 2026-05-06 03:10 | 36.53728 | -119.83989 | 21125 ft | 405 kts | 147° |
| 2026-05-06 03:10 | 36.51224 | -119.82355 | 21786 ft | 408 kts | 147° |
| 2026-05-06 03:11 | 36.48699 | -119.80707 | 22419 ft | 412 kts | 147° |
| 2026-05-06 03:11 | 36.46187 | -119.79068 | 23021 ft | 416 kts | 146° |
| 2026-05-06 03:11 | 36.43863 | -119.77554 | 23571 ft | 419 kts | 146° |
| 2026-05-06 03:11 | 36.41269 | -119.75865 | 24093 ft | 423 kts | 146° |
| 2026-05-06 03:12 | 36.38657 | -119.74165 | 24613 ft | 425 kts | 146° |
| 2026-05-06 03:12 | 36.36026 | -119.72455 | 25132 ft | 428 kts | 146° |
| 2026-05-06 03:12 | 36.33383 | -119.70738 | 25631 ft | 431 kts | 146° |
| 2026-05-06 03:12 | 36.30718 | -119.69009 | 26140 ft | 433 kts | 146° |
| 2026-05-06 03:13 | 36.28071 | -119.67291 | 26625 ft | 436 kts | 145° |
| 2026-05-06 03:13 | 36.25373 | -119.65543 | 27095 ft | 439 kts | 145° |
| 2026-05-06 03:13 | 36.22658 | -119.63784 | 27552 ft | 442 kts | 145° |
| 2026-05-06 03:13 | 36.19925 | -119.62015 | 28000 ft | 445 kts | 145° |
| 2026-05-06 03:14 | 36.17177 | -119.60238 | 28446 ft | 447 kts | 145° |
| 2026-05-06 03:14 | 36.14407 | -119.58447 | 28914 ft | 450 kts | 144° |
| 2026-05-06 03:14 | 36.11627 | -119.56654 | 29375 ft | 452 kts | 144° |
| 2026-05-06 03:14 | 36.08835 | -119.54853 | 29809 ft | 454 kts | 144° |
| 2026-05-06 03:15 | 36.06027 | -119.53043 | 30194 ft | 457 kts | 144° |
| 2026-05-06 03:15 | 36.03195 | -119.51218 | 30490 ft | 460 kts | 144° |
| 2026-05-06 03:15 | 36.00347 | -119.49385 | 30813 ft | 463 kts | 144° |
| 2026-05-06 03:15 | 35.97530 | -119.47574 | 31137 ft | 464 kts | 144° |
| 2026-05-06 03:16 | 35.94656 | -119.45729 | 31501 ft | 465 kts | 144° |
| 2026-05-06 03:16 | 35.91793 | -119.43895 | 31990 ft | 463 kts | 144° |
| 2026-05-06 03:16 | 35.88941 | -119.42070 | 32475 ft | 460 kts | 144° |
| 2026-05-06 03:16 | 35.86104 | -119.40255 | 32892 ft | 460 kts | 144° |
| 2026-05-06 03:17 | 35.83260 | -119.38434 | 33274 ft | 460 kts | 144° |
| 2026-05-06 03:17 | 35.80421 | -119.36616 | 33674 ft | 460 kts | 144° |
| 2026-05-06 03:17 | 35.77583 | -119.34802 | 34106 ft | 458 kts | 144° |
| 2026-05-06 03:17 | 35.74759 | -119.32998 | 34487 ft | 457 kts | 144° |
| 2026-05-06 03:18 | 35.71935 | -119.31196 | 34769 ft | 458 kts | 144° |
| 2026-05-06 03:18 | 35.69139 | -119.29410 | 35011 ft | 460 kts | 145° |
| 2026-05-06 03:18 | 35.66294 | -119.27596 | 35292 ft | 461 kts | 145° |
| 2026-05-06 03:18 | 35.63450 | -119.25784 | 35608 ft | 460 kts | 145° |
| 2026-05-06 03:19 | 35.60607 | -119.23976 | 35920 ft | 460 kts | 146° |
| 2026-05-06 03:19 | 35.57757 | -119.22164 | 36195 ft | 462 kts | 146° |
| 2026-05-06 03:19 | 35.54895 | -119.20345 | 36384 ft | 464 kts | 146° |
| 2026-05-06 03:19 | 35.52024 | -119.18522 | 36649 ft | 465 kts | 147° |
| 2026-05-06 03:20 | 35.46276 | -119.14880 | 37033 ft | 469 kts | 147° |
| 2026-05-06 03:20 | 35.40496 | -119.11220 | 37034 ft | 471 kts | 147° |
| 2026-05-06 03:21 | 35.34714 | -119.07572 | 37030 ft | 464 kts | 147° |
| 2026-05-06 03:21 | 35.28980 | -119.03956 | 37056 ft | 463 kts | 147° |
| 2026-05-06 03:22 | 35.23251 | -119.00346 | 37055 ft | 463 kts | 147° |
| 2026-05-06 03:22 | 35.17521 | -118.96742 | 37063 ft | 464 kts | 148° |
| 2026-05-06 03:23 | 35.11777 | -118.93135 | 37063 ft | 464 kts | 148° |
| 2026-05-06 03:23 | 35.06319 | -118.89713 | 37065 ft | 465 kts | 148° |
| 2026-05-06 03:24 | 35.00598 | -118.86133 | 37070 ft | 466 kts | 149° |
| 2026-05-06 03:24 | 34.94824 | -118.82524 | 37057 ft | 466 kts | 149° |
| 2026-05-06 03:25 | 34.89044 | -118.78918 | 37061 ft | 467 kts | 149° |
| 2026-05-06 03:25 | 34.83802 | -118.75652 | 37043 ft | 467 kts | 149° |
| 2026-05-06 03:26 | 34.78055 | -118.72077 | 37050 ft | 467 kts | 149° |
| 2026-05-06 03:26 | 34.72269 | -118.68484 | 37053 ft | 467 kts | 149° |
| 2026-05-06 03:27 | 34.66481 | -118.64891 | 37056 ft | 467 kts | 149° |
| 2026-05-06 03:27 | 34.60696 | -118.61311 | 37037 ft | 467 kts | 150° |
| 2026-05-06 03:28 | 34.54999 | -118.57560 | 37032 ft | 465 kts | 146° |
| 2026-05-06 03:28 | 34.49458 | -118.53543 | 37031 ft | 464 kts | 146° |
| 2026-05-06 03:29 | 34.43944 | -118.49536 | 36508 ft | 468 kts | 146° |
| 2026-05-06 03:29 | 34.41156 | -118.47534 | 35982 ft | 465 kts | 146° |
| 2026-05-06 03:29 | 34.38363 | -118.45541 | 35385 ft | 466 kts | 146° |
| 2026-05-06 03:30 | 34.35569 | -118.43554 | 34855 ft | 465 kts | 146° |
| 2026-05-06 03:30 | 34.32790 | -118.41583 | 34401 ft | 462 kts | 145° |
| 2026-05-06 03:30 | 34.30026 | -118.39625 | 33929 ft | 459 kts | 145° |
| 2026-05-06 03:30 | 34.27278 | -118.37680 | 33419 ft | 455 kts | 144° |
| 2026-05-06 03:31 | 34.24561 | -118.35756 | 32971 ft | 451 kts | 144° |
| 2026-05-06 03:31 | 34.21868 | -118.33851 | 32525 ft | 446 kts | 144° |
| 2026-05-06 03:31 | 34.19202 | -118.31966 | 32090 ft | 442 kts | 144° |
| 2026-05-06 03:31 | 34.16597 | -118.30126 | 31668 ft | 437 kts | 143° |
| 2026-05-06 03:32 | 34.13988 | -118.28284 | 31253 ft | 433 kts | 143° |
| 2026-05-06 03:32 | 34.11400 | -118.26458 | 30837 ft | 429 kts | 142° |
| 2026-05-06 03:32 | 34.08834 | -118.24648 | 30420 ft | 425 kts | 142° |
| 2026-05-06 03:32 | 34.06293 | -118.22857 | 29998 ft | 420 kts | 141° |
| 2026-05-06 03:33 | 34.03800 | -118.21102 | 29540 ft | 409 kts | 142° |
| 2026-05-06 03:33 | 34.01375 | -118.19395 | 29101 ft | 400 kts | 143° |
| 2026-05-06 03:33 | 33.98996 | -118.17721 | 28712 ft | 393 kts | 143° |
| 2026-05-06 03:33 | 33.96645 | -118.16064 | 28276 ft | 390 kts | 144° |
| 2026-05-06 03:34 | 33.94313 | -118.14422 | 27873 ft | 387 kts | 144° |
| 2026-05-06 03:34 | 33.91981 | -118.12781 | 27473 ft | 390 kts | 144° |
| 2026-05-06 03:34 | 33.89663 | -118.11150 | 27076 ft | 391 kts | 144° |
| 2026-05-06 03:34 | 33.87324 | -118.09511 | 26634 ft | 388 kts | 144° |
| 2026-05-06 03:35 | 33.85009 | -118.07890 | 26231 ft | 385 kts | 144° |
| 2026-05-06 03:35 | 33.82691 | -118.06306 | 25980 ft | 379 kts | 147° |
| 2026-05-06 03:35 | 33.80392 | -118.04781 | 25585 ft | 378 kts | 148° |
| 2026-05-06 03:35 | 33.78086 | -118.03266 | 25205 ft | 376 kts | 148° |
| 2026-05-06 03:36 | 33.75831 | -118.01784 | 24829 ft | 377 kts | 148° |
| 2026-05-06 03:36 | 33.73523 | -118.00264 | 24470 ft | 378 kts | 148° |
| 2026-05-06 03:36 | 33.71218 | -117.98744 | 24070 ft | 377 kts | 148° |
| 2026-05-06 03:36 | 33.68924 | -117.97230 | 23654 ft | 376 kts | 148° |
| 2026-05-06 03:37 | 33.66644 | -117.95725 | 23192 ft | 373 kts | 148° |
| 2026-05-06 03:37 | 33.64403 | -117.94246 | 22765 ft | 371 kts | 148° |
| 2026-05-06 03:37 | 33.62153 | -117.92760 | 22356 ft | 368 kts | 149° |
| 2026-05-06 03:37 | 33.59920 | -117.91287 | 21955 ft | 365 kts | 149° |
| 2026-05-06 03:38 | 33.57705 | -117.89827 | 21554 ft | 362 kts | 149° |
| 2026-05-06 03:38 | 33.55506 | -117.88380 | 21211 ft | 358 kts | 149° |
| 2026-05-06 03:38 | 33.53352 | -117.86947 | 20908 ft | 353 kts | 148° |
| 2026-05-06 03:38 | 33.51215 | -117.85486 | 20521 ft | 354 kts | 148° |
| 2026-05-06 03:39 | 33.49078 | -117.84021 | 20140 ft | 354 kts | 148° |
| 2026-05-06 03:39 | 33.46943 | -117.82563 | 19755 ft | 352 kts | 148° |
| 2026-05-06 03:39 | 33.44824 | -117.81113 | 19381 ft | 350 kts | 147° |
| 2026-05-06 03:39 | 33.42863 | -117.79411 | 18990 ft | 347 kts | 137° |
| 2026-05-06 03:40 | 33.41094 | -117.77509 | 18605 ft | 346 kts | 136° |
| 2026-05-06 03:40 | 33.39319 | -117.75573 | 18215 ft | 345 kts | 136° |
| 2026-05-06 03:40 | 33.37546 | -117.73646 | 17724 ft | 345 kts | 136° |
| 2026-05-06 03:40 | 33.35768 | -117.71726 | 17312 ft | 343 kts | 136° |
| 2026-05-06 03:41 | 33.33996 | -117.69825 | 16919 ft | 341 kts | 136° |
| 2026-05-06 03:41 | 33.32233 | -117.67938 | 16538 ft | 339 kts | 136° |
| 2026-05-06 03:41 | 33.30478 | -117.66065 | 16162 ft | 337 kts | 136° |
| 2026-05-06 03:41 | 33.28736 | -117.64206 | 15793 ft | 335 kts | 137° |
| 2026-05-06 03:42 | 33.27023 | -117.62382 | 15444 ft | 333 kts | 137° |
| 2026-05-06 03:42 | 33.25294 | -117.60542 | 15072 ft | 332 kts | 137° |
| 2026-05-06 03:42 | 33.23566 | -117.58712 | 14655 ft | 333 kts | 137° |
| 2026-05-06 03:42 | 33.21831 | -117.56885 | 14287 ft | 332 kts | 137° |
| 2026-05-06 03:43 | 33.20102 | -117.55068 | 13905 ft | 331 kts | 137° |
| 2026-05-06 03:43 | 33.18374 | -117.53250 | 13504 ft | 330 kts | 137° |
| 2026-05-06 03:43 | 33.16655 | -117.51443 | 13121 ft | 328 kts | 137° |
| 2026-05-06 03:43 | 33.14946 | -117.49646 | 12747 ft | 326 kts | 137° |
| 2026-05-06 03:44 | 33.13346 | -117.48001 | 12407 ft | 325 kts | 140° |
| 2026-05-06 03:44 | 33.11522 | -117.46427 | 12044 ft | 323 kts | 144° |
| 2026-05-06 03:44 | 33.09667 | -117.44928 | 11694 ft | 321 kts | 144° |
| 2026-05-06 03:44 | 33.07852 | -117.43451 | 11345 ft | 319 kts | 144° |
| 2026-05-06 03:45 | 33.06031 | -117.41950 | 11000 ft | 317 kts | 144° |
| 2026-05-06 03:45 | 33.04223 | -117.40447 | 10647 ft | 316 kts | 144° |
| 2026-05-06 03:45 | 33.02429 | -117.38944 | 10339 ft | 313 kts | 143° |
| 2026-05-06 03:45 | 33.00672 | -117.37468 | 10210 ft | 305 kts | 144° |
| 2026-05-06 03:46 | 32.98961 | -117.36031 | 10058 ft | 297 kts | 143° |
| 2026-05-06 03:46 | 32.97289 | -117.34628 | 9815 ft | 293 kts | 143° |
| 2026-05-06 03:46 | 32.95625 | -117.33233 | 9515 ft | 291 kts | 143° |
| 2026-05-06 03:46 | 32.93977 | -117.31853 | 9306 ft | 286 kts | 143° |
| 2026-05-06 03:47 | 32.92390 | -117.30526 | 9188 ft | 279 kts | 144° |
| 2026-05-06 03:47 | 32.90813 | -117.29209 | 8931 ft | 276 kts | 144° |
| 2026-05-06 03:47 | 32.89242 | -117.27902 | 8666 ft | 275 kts | 144° |
| 2026-05-06 03:47 | 32.87680 | -117.26603 | 8407 ft | 273 kts | 144° |
| 2026-05-06 03:48 | 32.86125 | -117.25311 | 8148 ft | 272 kts | 144° |
| 2026-05-06 03:48 | 32.84576 | -117.24025 | 7883 ft | 271 kts | 144° |
| 2026-05-06 03:48 | 32.83033 | -117.22745 | 7617 ft | 270 kts | 144° |
| 2026-05-06 03:48 | 32.81570 | -117.21371 | 7339 ft | 268 kts | 128° |
| 2026-05-06 03:49 | 32.80736 | -117.19439 | 7100 ft | 261 kts | 105° |
| 2026-05-06 03:49 | 32.80250 | -117.17369 | 6832 ft | 259 kts | 102° |
| 2026-05-06 03:49 | 32.79825 | -117.15322 | 6584 ft | 258 kts | 102° |
| 2026-05-06 03:49 | 32.79388 | -117.13255 | 6365 ft | 256 kts | 103° |
| 2026-05-06 03:50 | 32.78948 | -117.11232 | 6241 ft | 249 kts | 103° |
| 2026-05-06 03:50 | 32.78514 | -117.09267 | 6118 ft | 242 kts | 103° |
| 2026-05-06 03:50 | 32.78089 | -117.07362 | 6012 ft | 235 kts | 103° |
| 2026-05-06 03:50 | 32.77708 | -117.05690 | 5862 ft | 232 kts | 104° |
| 2026-05-06 03:51 | 32.77264 | -117.03851 | 5695 ft | 231 kts | 105° |
| 2026-05-06 03:51 | 32.76823 | -117.02052 | 5538 ft | 221 kts | 105° |
| 2026-05-06 03:51 | 32.76407 | -117.00351 | 5359 ft | 209 kts | 105° |
| 2026-05-06 03:51 | 32.76013 | -116.98742 | 5183 ft | 198 kts | 105° |
| 2026-05-06 03:52 | 32.75476 | -116.97271 | 4937 ft | 192 kts | 125° |
| 2026-05-06 03:52 | 32.74567 | -116.96198 | 4710 ft | 184 kts | 144° |
| 2026-05-06 03:52 | 32.73448 | -116.95559 | 4529 ft | 176 kts | 169° |
| 2026-05-06 03:52 | 32.72233 | -116.95423 | 4328 ft | 175 kts | 187° |
| 2026-05-06 03:53 | 32.71062 | -116.95755 | 4124 ft | 172 kts | 207° |
| 2026-05-06 03:53 | 32.70062 | -116.96500 | 3930 ft | 169 kts | 225° |
| 2026-05-06 03:53 | 32.69316 | -116.97570 | 3718 ft | 169 kts | 240° |
| 2026-05-06 03:53 | 32.68892 | -116.98862 | 3470 ft | 167 kts | 262° |
| 2026-05-06 03:54 | 32.68838 | -117.00213 | 3254 ft | 164 kts | 278° |
| 2026-05-06 03:54 | 32.69091 | -117.01526 | 3075 ft | 163 kts | 287° |
| 2026-05-06 03:54 | 32.69410 | -117.02821 | 2849 ft | 163 kts | 286° |
| 2026-05-06 03:54 | 32.69726 | -117.04090 | 2632 ft | 158 kts | 286° |
| 2026-05-06 03:55 | 32.70033 | -117.05333 | 2452 ft | 159 kts | 286° |
| 2026-05-06 03:55 | 32.70336 | -117.06562 | 2327 ft | 150 kts | 286° |
| 2026-05-06 03:55 | 32.70617 | -117.07707 | 2063 ft | 138 kts | 286° |
| 2026-05-06 03:55 | 32.70874 | -117.08755 | 1866 ft | 129 kts | 285° |
| 2026-05-06 03:56 | 32.71120 | -117.09770 | 1653 ft | 126 kts | 285° |
| 2026-05-06 03:56 | 32.71367 | -117.10763 | 1472 ft | 126 kts | 285° |
| 2026-05-06 03:56 | 32.71620 | -117.11761 | 1305 ft | 127 kts | 287° |
| 2026-05-06 03:56 | 32.71869 | -117.12774 | 1097 ft | 126 kts | 285° |
| 2026-05-06 03:57 | 32.72102 | -117.13774 | 869 ft | 125 kts | 285° |
| 2026-05-06 03:57 | 32.72339 | -117.14759 | 682 ft | 122 kts | 286° |
| 2026-05-06 03:57 | 32.72574 | -117.15717 | 504 ft | 120 kts | 286° |
| 2026-05-06 03:57 | 32.72793 | -117.16645 | 327 ft | 117 kts | 286° |
| 2026-05-06 03:58 | 32.73021 | -117.17561 | 156 ft | 114 kts | 287° |
| 2026-05-06 03:58 | 32.73232 | -117.18444 | 29 ft | 104 kts | 287° |
| 2026-05-06 03:58 | 32.73391 | -117.19106 | 21 ft | 54 kts | 285° |
| 2026-05-06 03:58 | 32.73444 | -117.19330 | 21 ft | 17 kts | 285° |
| 2026-05-06 03:59 | 32.73436 | -117.19458 | 23 ft | 13 kts | 248° |
| 2026-05-06 03:59 | 32.73402 | -117.19509 | 25 ft | 7 kts | 237° |
| 2026-05-06 03:59 | 32.73368 | -117.19570 | 23 ft | 10 kts | 232° |
| 2026-05-06 03:59 | 32.73352 | -117.19591 | 20 ft | 5 kts | 218° |
| 2026-05-06 04:00 | 32.73333 | -117.19601 | 20 ft | 0 kts | 199° |
| 2026-05-06 04:00 | 32.73328 | -117.19603 | 20 ft | 0 kts | 199° |